Time;durP1;ratioP1;P1;durP2;ratioP2;P2;SDS_P1;SDS_P2;PMS_P1;PMS_P2;Temp;Humidity;BMP_temperature;BMP_pressure;BME280_temperature;BME280_humidity;BME280_pressure;Samples;Min_cycle;Max_cycle;Signal;HPM_P1;HPM_P2
2022/01/24 00:00:00;;;;;;;5.47;4.40;;;19.90;46.30;;;;;;5065789;28;20421;-66
2022/01/24 00:02:28;;;;;;;6.55;4.80;;;19.90;46.30;;;;;;5067310;28;20086;-66
2022/01/24 00:04:54;;;;;;;6.30;4.78;;;19.90;46.30;;;;;;5057247;28;20060;-66
2022/01/24 00:07:22;;;;;;;5.78;4.63;;;19.80;46.30;;;;;;5067732;28;20091;-66
2022/01/24 00:09:49;;;;;;;5.47;4.35;;;19.80;46.30;;;;;;5069873;28;20044;-66
2022/01/24 00:12:44;;;;;;;6.88;5.03;;;19.80;46.30;;;;;;5064103;28;20037;-66
2022/01/24 00:15:15;;;;;;;6.20;4.80;;;19.80;46.30;;;;;;5064649;28;20060;-64
2022/01/24 00:17:48;;;;;;;6.25;4.65;;;19.80;46.40;;;;;;5069242;28;20416;-64
2022/01/24 00:28:25;;;;;;;6.07;4.80;;;19.80;46.40;;;;;;5070066;28;20399;-66
2022/01/24 00:30:51;;;;;;;5.55;4.47;;;19.70;46.50;;;;;;5066800;28;20033;-66
2022/01/24 00:33:20;;;;;;;6.28;5.00;;;19.70;46.40;;;;;;5048574;28;20035;-65
2022/01/24 00:35:47;;;;;;;6.13;4.53;;;19.70;46.50;;;;;;5072920;28;20036;-65
2022/01/24 00:38:13;;;;;;;6.43;4.43;;;19.70;46.40;;;;;;5064823;28;20043;-65
2022/01/24 00:40:41;;;;;;;5.88;4.20;;;19.70;46.40;;;;;;5068593;28;20025;-65
2022/01/24 00:44:04;;;;;;;6.00;4.60;;;19.70;46.40;;;;;;5068926;28;20021;-65
2022/01/24 00:46:17;;;;;;;5.97;4.40;;;19.70;46.40;;;;;;5056567;28;20048;-66
2022/01/24 00:49:12;;;;;;;6.03;4.30;;;19.70;46.50;;;;;;5072772;28;20596;-66
2022/01/24 00:57:03;;;;;;;6.03;4.50;;;19.60;47.40;;;;;;5063345;28;21233;-64
2022/01/24 00:59:29;;;;;;;6.57;4.97;;;19.60;46.30;;;;;;5070167;28;20455;-64
2022/01/24 01:01:55;;;;;;;6.25;4.75;;;19.60;46.40;;;;;;5074348;28;20384;-64
2022/01/24 01:04:26;;;;;;;6.93;4.90;;;19.60;46.30;;;;;;5066933;28;20025;-64
2022/01/24 01:06:53;;;;;;;6.15;5.05;;;19.60;46.20;;;;;;5070669;28;20476;-64
2022/01/24 01:20:22;;;;;;;7.15;5.10;;;19.50;46.20;;;;;;5076415;28;20515;-67
2022/01/24 01:22:47;;;;;;;6.03;4.27;;;19.50;46.10;;;;;;5068954;28;20048;-67
2022/01/24 01:25:14;;;;;;;5.25;4.07;;;19.50;46.10;;;;;;5071273;28;20110;-66
2022/01/24 01:27:43;;;;;;;5.85;4.57;;;19.50;46.00;;;;;;5071797;28;20143;-66
2022/01/24 01:30:18;;;;;;;5.45;4.40;;;19.50;46.00;;;;;;5053134;28;20464;-66
2022/01/24 01:54:02;;;;;;;5.28;3.95;;;19.30;45.80;;;;;;5064508;28;20044;-64
2022/01/24 01:56:28;;;;;;;4.88;3.83;;;19.30;45.90;;;;;;5073751;28;20037;-64
2022/01/24 01:58:53;;;;;;;5.28;4.18;;;19.30;45.80;;;;;;5074536;28;20360;-66
2022/01/24 02:01:19;;;;;;;5.20;4.10;;;19.30;45.80;;;;;;5072898;28;20089;-66
2022/01/24 02:03:46;;;;;;;5.75;4.22;;;19.30;45.80;;;;;;5062081;28;20033;-66
2022/01/24 02:06:12;;;;;;;4.75;3.92;;;19.30;45.80;;;;;;5063854;28;20021;-66
2022/01/24 02:08:38;;;;;;;5.32;4.10;;;19.30;45.70;;;;;;5074361;28;20396;-66
2022/01/24 02:11:04;;;;;;;4.65;3.63;;;19.20;45.60;;;;;;5070550;28;20146;-66
2022/01/24 02:13:31;;;;;;;5.05;4.10;;;19.20;45.70;;;;;;5071165;28;20111;-66
2022/01/24 02:21:25;;;;;;;5.30;3.95;;;19.20;45.60;;;;;;5074600;28;20064;-64
2022/01/24 02:23:51;;;;;;;5.97;3.97;;;19.20;45.70;;;;;;5073188;28;20078;-64
2022/01/24 02:26:21;;;;;;;6.40;4.15;;;19.20;45.70;;;;;;5069235;28;20092;-64
2022/01/24 02:29:05;;;;;;;5.07;4.00;;;19.20;45.70;;;;;;5071038;28;20368;-64
2022/01/24 02:31:41;;;;;;;5.78;4.03;;;19.10;45.60;;;;;;5072855;28;20043;-64
2022/01/24 02:34:30;;;;;;;5.38;3.90;;;19.20;45.70;;;;;;5073791;28;20084;-64
2022/01/24 02:36:59;;;;;;;4.47;3.55;;;19.10;45.50;;;;;;5067341;28;20487;-64
2022/01/24 02:39:46;;;;;;;4.97;3.78;;;19.10;45.60;;;;;;5062103;28;20036;-64
2022/01/24 02:51:10;;;;;;;5.47;4.10;;;19.00;45.50;;;;;;5073412;28;20048;-66
2022/01/24 02:53:16;;;;;;;5.15;3.65;;;19.00;45.50;;;;;;5061183;28;20036;-66
2022/01/24 02:55:43;;;;;;;4.90;3.83;;;19.00;45.60;;;;;;5071240;28;20495;-66
2022/01/24 02:58:08;;;;;;;4.82;3.80;;;19.00;45.60;;;;;;5066110;28;20021;-66
2022/01/24 03:00:35;;;;;;;4.18;3.70;;;19.00;45.50;;;;;;5071682;28;20323;-66
2022/01/24 03:03:01;;;;;;;4.40;3.60;;;19.00;45.50;;;;;;5073395;28;20063;-64
2022/01/24 03:05:27;;;;;;;4.45;3.30;;;19.00;45.50;;;;;;5044127;28;20052;-64
2022/01/24 03:07:52;;;;;;;4.57;3.70;;;19.00;45.50;;;;;;5054155;28;20147;-64
2022/01/24 03:10:27;;;;;;;4.75;3.72;;;19.00;45.50;;;;;;5054662;28;20033;-64
2022/01/24 03:13:32;;;;;;;4.22;3.35;;;18.90;46.40;;;;;;5059891;28;20024;-64
2022/01/24 03:15:47;;;;;;;4.38;3.42;;;18.90;45.50;;;;;;5069790;28;20056;-64
2022/01/24 03:18:13;;;;;;;4.50;3.50;;;18.90;45.50;;;;;;5060169;28;20021;-64
2022/01/24 03:20:39;;;;;;;5.78;3.63;;;18.90;45.50;;;;;;5057899;28;20024;-64
2022/01/24 03:23:05;;;;;;;4.57;3.60;;;18.90;45.50;;;;;;5061199;28;20029;-64
2022/01/24 03:25:31;;;;;;;4.78;3.72;;;18.90;45.50;;;;;;5056795;28;20091;-65
2022/01/24 03:27:57;;;;;;;4.43;3.40;;;18.80;45.40;;;;;;5072598;28;20087;-64
2022/01/24 03:30:24;;;;;;;4.80;3.70;;;18.80;45.40;;;;;;5067851;28;20465;-64
2022/01/24 03:32:50;;;;;;;5.00;3.60;;;18.80;45.40;;;;;;5072740;28;20348;-64
2022/01/24 03:35:16;;;;;;;4.70;3.88;;;18.80;45.40;;;;;;5066463;28;20025;-64
2022/01/24 03:37:42;;;;;;;4.50;3.33;;;18.80;45.40;;;;;;5071574;28;20041;-64
2022/01/24 03:40:08;;;;;;;5.38;3.80;;;18.80;45.40;;;;;;5073248;28;20020;-64
2022/01/24 03:42:34;;;;;;;5.07;3.70;;;18.80;45.40;;;;;;5070786;28;20106;-64
2022/01/24 03:45:04;;;;;;;4.45;3.33;;;18.80;45.40;;;;;;5065792;28;20488;-64
2022/01/24 03:47:42;;;;;;;4.35;3.47;;;18.80;45.40;;;;;;5058848;28;20029;-64
2022/01/24 03:50:14;;;;;;;4.15;3.35;;;18.80;45.40;;;;;;5053609;28;20067;-65
2022/01/24 03:52:39;;;;;;;4.38;3.25;;;18.80;45.40;;;;;;5055611;28;20407;-64
2022/01/24 03:55:06;;;;;;;4.60;3.53;;;18.80;45.40;;;;;;5054166;28;20042;-64
2022/01/24 03:57:31;;;;;;;4.30;3.05;;;18.70;45.30;;;;;;5067237;28;20042;-66
2022/01/24 03:59:57;;;;;;;4.20;3.30;;;18.70;45.30;;;;;;5072830;28;20024;-66
2022/01/24 04:02:25;;;;;;;4.60;3.53;;;18.70;45.40;;;;;;5069959;28;20123;-66
2022/01/24 04:04:51;;;;;;;4.85;3.70;;;18.70;45.40;;;;;;5053092;28;20022;-66
2022/01/24 04:07:17;;;;;;;4.47;3.05;;;18.70;45.40;;;;;;5066300;28;20086;-66
2022/01/24 04:09:44;;;;;;;5.07;3.58;;;18.70;45.30;;;;;;5072496;28;20037;-66
2022/01/24 04:12:11;;;;;;;4.32;3.20;;;18.70;45.30;;;;;;5059629;28;20028;-66
2022/01/24 04:22:10;;;;;;;4.38;3.20;;;18.60;45.30;;;;;;5068212;28;20032;-66
2022/01/24 04:24:36;;;;;;;4.65;3.17;;;18.60;45.30;;;;;;5073409;28;20024;-66
2022/01/24 04:27:03;;;;;;;5.45;3.50;;;18.60;45.40;;;;;;5068780;28;20032;-66
2022/01/24 04:29:28;;;;;;;4.03;3.28;;;18.60;45.30;;;;;;5073294;28;20062;-66
2022/01/24 04:31:54;;;;;;;3.95;2.97;;;18.60;45.30;;;;;;5066312;28;20033;-66
2022/01/24 04:34:20;;;;;;;4.65;3.58;;;18.60;45.30;;;;;;5068002;28;20494;-67
2022/01/24 04:36:45;;;;;;;4.10;3.03;;;18.60;45.30;;;;;;5065719;28;20033;-64
2022/01/24 04:39:11;;;;;;;3.97;3.10;;;18.60;45.30;;;;;;5054140;28;20041;-66
2022/01/24 04:41:40;;;;;;;4.00;3.15;;;18.50;45.30;;;;;;5067452;28;20065;-66
2022/01/24 04:54:43;;;;;;;4.10;3.30;;;18.50;45.30;;;;;;5057165;28;20577;-66
2022/01/24 04:57:15;;;;;;;3.97;3.10;;;18.50;45.30;;;;;;5063026;28;20032;-66
2022/01/24 04:59:42;;;;;;;4.20;3.17;;;18.50;45.30;;;;;;5068033;28;20036;-66
2022/01/24 05:02:08;;;;;;;3.95;3.30;;;18.50;45.30;;;;;;5071863;28;20020;-66
2022/01/24 05:04:34;;;;;;;4.18;3.13;;;18.40;45.20;;;;;;5071201;28;20081;-66
2022/01/24 05:07:00;;;;;;;3.95;3.17;;;18.40;45.20;;;;;;5071864;28;20112;-66
2022/01/24 05:09:28;;;;;;;5.38;3.10;;;18.40;45.30;;;;;;5072820;28;20182;-66
2022/01/24 05:12:00;;;;;;;3.90;2.83;;;18.40;45.20;;;;;;5071207;28;20383;-64
2022/01/24 05:25:22;;;;;;;4.05;2.90;;;18.40;45.40;;;;;;5056466;28;20044;-66
2022/01/24 05:27:47;;;;;;;3.60;2.85;;;18.30;45.30;;;;;;5071827;28;20020;-64
2022/01/24 05:30:14;;;;;;;4.93;3.25;;;18.40;45.40;;;;;;5074885;28;20116;-66
2022/01/24 05:32:40;;;;;;;4.40;3.30;;;18.30;45.30;;;;;;5072293;28;20024;-64
2022/01/24 05:35:06;;;;;;;4.47;3.17;;;18.30;45.30;;;;;;5068140;28;20063;-64
2022/01/24 05:37:32;;;;;;;4.30;2.97;;;18.30;45.30;;;;;;5053165;28;20033;-65
2022/01/24 05:39:58;;;;;;;3.70;2.60;;;18.30;45.30;;;;;;5070170;28;20064;-64
2022/01/24 05:42:23;;;;;;;3.42;2.90;;;18.30;45.30;;;;;;5074135;28;20028;-64
2022/01/24 05:44:52;;;;;;;3.80;2.83;;;18.30;45.30;;;;;;5072778;28;20541;-64
2022/01/24 05:47:18;;;;;;;3.92;2.78;;;18.30;45.30;;;;;;5074601;28;20025;-64
2022/01/24 05:49:44;;;;;;;4.07;3.00;;;18.30;45.30;;;;;;5070262;28;20082;-64
2022/01/24 05:52:10;;;;;;;4.03;2.95;;;18.30;45.30;;;;;;5066834;28;20032;-64
2022/01/24 05:54:40;;;;;;;3.55;2.67;;;18.30;45.30;;;;;;5053384;28;20024;-64
2022/01/24 05:57:06;;;;;;;4.40;2.75;;;18.30;45.30;;;;;;5066212;28;20024;-64
2022/01/24 05:59:32;;;;;;;3.67;2.88;;;18.20;45.30;;;;;;5071150;28;20170;-66
2022/01/24 06:01:58;;;;;;;3.60;2.80;;;18.20;45.20;;;;;;5074765;28;20029;-64
2022/01/24 06:04:24;;;;;;;4.22;3.03;;;18.30;45.30;;;;;;5065867;28;20434;-66
2022/01/24 06:06:49;;;;;;;4.03;3.25;;;18.20;45.30;;;;;;5073200;28;20479;-66
2022/01/24 06:09:15;;;;;;;3.92;3.03;;;18.20;45.30;;;;;;5075270;28;20082;-66
2022/01/24 06:11:42;;;;;;;3.83;3.25;;;18.20;45.30;;;;;;5063238;28;20071;-66
2022/01/24 06:14:08;;;;;;;4.25;2.88;;;18.20;45.30;;;;;;5055446;28;20025;-64
2022/01/24 06:16:34;;;;;;;3.75;2.60;;;18.20;45.30;;;;;;5065868;28;20175;-64
2022/01/24 06:18:59;;;;;;;4.65;2.80;;;18.20;45.30;;;;;;5059328;28;20033;-64
2022/01/24 06:21:25;;;;;;;3.33;2.75;;;18.20;45.30;;;;;;5071253;28;20041;-65
2022/01/24 06:23:50;;;;;;;3.30;2.70;;;18.10;45.30;;;;;;5049921;28;20025;-64
2022/01/24 06:26:16;;;;;;;3.35;2.60;;;18.10;45.30;;;;;;5044312;28;20400;-66
2022/01/24 06:28:42;;;;;;;3.30;2.78;;;18.10;45.30;;;;;;5072603;28;20139;-66
2022/01/24 06:31:07;;;;;;;3.67;2.67;;;18.10;45.30;;;;;;5073856;28;20059;-66
2022/01/24 06:33:33;;;;;;;3.63;2.92;;;18.10;45.30;;;;;;5044429;28;20060;-64
2022/01/24 06:35:59;;;;;;;3.15;2.47;;;18.10;45.30;;;;;;5074260;28;20036;-64
2022/01/24 06:38:24;;;;;;;2.88;2.40;;;18.10;45.30;;;;;;5068260;28;20025;-64
2022/01/24 06:40:50;;;;;;;3.67;2.70;;;18.10;45.30;;;;;;5063507;28;20035;-64
2022/01/24 06:43:16;;;;;;;4.30;2.80;;;18.10;45.30;;;;;;5068829;28;20039;-64
2022/01/24 06:45:42;;;;;;;3.88;2.60;;;18.10;45.30;;;;;;5059169;28;20024;-64
2022/01/24 06:48:08;;;;;;;3.25;2.45;;;18.10;45.30;;;;;;5073726;28;20379;-64
2022/01/24 06:50:34;;;;;;;3.17;2.50;;;18.00;45.30;;;;;;5073465;28;20037;-66
2022/01/24 06:52:59;;;;;;;3.85;2.70;;;18.00;45.30;;;;;;5073838;28;20100;-66
2022/01/24 06:55:25;;;;;;;3.40;2.70;;;18.00;45.30;;;;;;5072268;28;20116;-66
2022/01/24 06:57:51;;;;;;;3.65;2.60;;;18.00;45.30;;;;;;5047585;28;20028;-66
2022/01/24 07:00:16;;;;;;;3.28;2.72;;;18.00;45.40;;;;;;5073216;28;20086;-66
2022/01/24 07:02:42;;;;;;;2.97;2.55;;;18.00;45.30;;;;;;5061328;28;20027;-66
2022/01/24 07:05:08;;;;;;;3.88;2.70;;;18.00;45.30;;;;;;5072576;28;20032;-66
2022/01/24 07:07:33;;;;;;;3.92;2.80;;;18.00;45.30;;;;;;5065789;28;20029;-66
2022/01/24 07:10:00;;;;;;;2.97;2.30;;;18.00;45.30;;;;;;5070498;28;20043;-66
2022/01/24 07:12:26;;;;;;;3.20;2.42;;;18.00;45.40;;;;;;5055757;28;20111;-66
2022/01/24 07:14:53;;;;;;;3.40;2.60;;;17.90;45.30;;;;;;5053827;28;20421;-66
2022/01/24 07:19:50;;;;;;;3.13;2.30;;;17.90;45.30;;;;;;5060250;28;20057;-66
2022/01/24 07:22:15;;;;;;;3.03;2.35;;;17.90;45.30;;;;;;5071550;28;20432;-64
2022/01/24 07:24:42;;;;;;;3.22;2.60;;;17.90;45.30;;;;;;5060345;28;20033;-64
2022/01/24 07:27:08;;;;;;;3.20;2.40;;;17.90;45.40;;;;;;5070441;28;20033;-64
2022/01/24 07:29:34;;;;;;;3.55;2.63;;;17.90;45.30;;;;;;5073842;28;20056;-66
2022/01/24 07:32:00;;;;;;;3.65;2.60;;;17.90;45.40;;;;;;5072220;28;20074;-66
2022/01/24 07:34:25;;;;;;;3.17;2.22;;;17.90;45.40;;;;;;5073698;28;20028;-67
2022/01/24 07:36:51;;;;;;;3.38;2.45;;;17.80;45.30;;;;;;5067503;28;20025;-64
2022/01/24 07:39:17;;;;;;;2.88;2.33;;;17.90;45.40;;;;;;5054060;28;20357;-64
2022/01/24 07:41:47;;;;;;;3.08;2.42;;;17.90;45.40;;;;;;5053873;28;20061;-64
2022/01/24 07:44:14;;;;;;;3.10;2.40;;;17.80;45.30;;;;;;5053079;28;20045;-64
2022/01/24 07:46:40;;;;;;;4.03;2.53;;;17.80;45.30;;;;;;5057786;28;20033;-66
2022/01/24 07:49:08;;;;;;;2.95;2.45;;;17.80;45.30;;;;;;5053471;28;20495;-66
2022/01/24 07:51:34;;;;;;;2.90;2.40;;;17.80;45.30;;;;;;5058570;28;20036;-66
2022/01/24 07:54:00;;;;;;;3.28;2.38;;;17.80;45.30;;;;;;5069068;28;20371;-66
2022/01/24 07:56:26;;;;;;;3.70;3.03;;;17.80;45.30;;;;;;5054261;28;20027;-66
2022/01/24 07:58:51;;;;;;;3.20;2.10;;;17.80;45.30;;;;;;5052429;28;20040;-66
2022/01/24 08:01:19;;;;;;;3.42;2.25;;;17.80;45.40;;;;;;5067817;28;20039;-64
2022/01/24 08:03:45;;;;;;;3.15;2.25;;;17.80;45.40;;;;;;5060317;28;20037;-64
2022/01/24 08:06:10;;;;;;;3.28;2.30;;;17.80;45.40;;;;;;5056169;28;20029;-64
2022/01/24 08:08:37;;;;;;;3.00;2.15;;;17.80;45.30;;;;;;5053477;28;20410;-64
2022/01/24 08:11:03;;;;;;;2.83;2.25;;;17.80;45.40;;;;;;5064457;28;20027;-64
2022/01/24 08:13:28;;;;;;;5.20;4.15;;;17.70;45.30;;;;;;5068236;28;20033;-68
2022/01/24 08:15:55;;;;;;;5.95;4.30;;;17.70;44.90;;;;;;5069778;28;20032;-68
2022/01/24 08:18:21;;;;;;;6.55;4.95;;;17.50;43.80;;;;;;5039786;28;20119;-67
2022/01/24 08:20:46;;;;;;;9.55;5.47;;;17.20;43.80;;;;;;5064854;28;20125;-66
2022/01/24 08:23:13;;;;;;;8.43;5.30;;;16.90;44.20;;;;;;5056230;28;20446;-67
2022/01/24 08:25:40;;;;;;;7.30;5.25;;;16.60;44.60;;;;;;5044345;28;20021;-67
2022/01/24 08:28:06;;;;;;;6.72;4.38;;;16.40;44.70;;;;;;5066446;28;20441;-67
2022/01/24 08:30:31;;;;;;;7.50;4.90;;;16.20;45.30;;;;;;5068524;28;20025;-67
2022/01/24 08:32:57;;;;;;;4.53;2.80;;;16.10;45.70;;;;;;5072040;28;20055;-66
2022/01/24 08:35:24;;;;;;;6.00;2.63;;;16.00;47.50;;;;;;5072041;28;20116;-67
2022/01/24 08:37:50;;;;;;;4.75;2.70;;;16.20;48.30;;;;;;5053857;28;20062;-65
2022/01/24 08:40:27;;;;;;;3.50;2.20;;;16.50;48.30;;;;;;5055013;28;20071;-66
2022/01/24 08:48:29;;;;;;;3.55;2.00;;;17.30;47.30;;;;;;5010120;28;20049;-66
2022/01/24 08:50:56;;;;;;;2.30;1.92;;;17.60;46.90;;;;;;5036151;28;20029;-65
2022/01/24 08:53:23;;;;;;;2.70;1.90;;;17.70;46.70;;;;;;5058328;28;20039;-67
2022/01/24 08:55:49;;;;;;;2.33;1.77;;;17.90;46.40;;;;;;5075512;28;20028;-66
2022/01/24 08:58:17;;;;;;;3.15;2.05;;;18.00;46.10;;;;;;5075522;28;20499;-65
2022/01/24 09:00:44;;;;;;;2.63;2.00;;;18.20;45.80;;;;;;5075497;28;20036;-66
2022/01/24 09:03:11;;;;;;;2.00;1.65;;;18.30;45.60;;;;;;5075653;28;20086;-67
2022/01/24 09:05:37;;;;;;;3.20;2.00;;;18.40;45.30;;;;;;5072944;28;20059;-64
2022/01/24 09:08:05;;;;;;;2.28;1.90;;;18.50;45.10;;;;;;5057513;28;20476;-65
2022/01/24 09:10:32;;;;;;;2.50;1.75;;;18.60;44.80;;;;;;5075659;28;20012;-65
2022/01/24 09:12:58;;;;;;;2.30;1.70;;;18.70;44.80;;;;;;5075452;28;20480;-66
2022/01/24 09:15:23;;;;;;;2.38;1.55;;;18.70;44.60;;;;;;5075581;28;20112;-66
2022/01/24 09:17:49;;;;;;;2.53;1.90;;;18.80;44.70;;;;;;5050810;28;20056;-66
2022/01/24 09:20:15;;;;;;;2.90;1.77;;;18.90;44.60;;;;;;5072112;28;20032;-67
2022/01/24 09:22:46;;;;;;;2.60;1.67;;;18.90;44.40;;;;;;5055406;28;20040;-65
2022/01/24 09:25:15;;;;;;;2.30;1.85;;;19.00;45.30;;;;;;5055215;28;20032;-65
2022/01/24 09:27:42;;;;;;;3.67;2.13;;;19.00;44.10;;;;;;5068678;28;20115;-64
2022/01/24 09:30:09;;;;;;;5.90;2.45;;;19.10;43.90;;;;;;5075230;28;20064;-65
2022/01/24 09:32:35;;;;;;;5.93;2.60;;;19.20;44.10;;;;;;5075201;28;20073;-64
2022/01/24 09:35:02;;;;;;;3.92;2.25;;;19.20;44.30;;;;;;5072163;28;20032;-64
2022/01/24 09:37:28;;;;;;;5.30;2.40;;;19.20;44.20;;;;;;5065466;28;20033;-66
2022/01/24 09:39:53;;;;;;;4.30;2.53;;;19.20;44.00;;;;;;5074977;28;20031;-66
2022/01/24 09:42:19;;;;;;;5.60;2.10;;;19.30;44.10;;;;;;5064844;28;20365;-66
2022/01/24 09:44:46;;;;;;;4.13;1.90;;;19.30;44.00;;;;;;5059455;28;20489;-67
2022/01/24 09:47:16;;;;;;;4.10;2.00;;;19.30;44.00;;;;;;5064803;28;20029;-65
2022/01/24 09:49:42;;;;;;;5.05;2.17;;;19.40;43.90;;;;;;5059450;28;20299;-66
2022/01/24 09:52:08;;;;;;;5.72;2.90;;;19.40;43.90;;;;;;5070601;28;20066;-67
2022/01/24 09:54:34;;;;;;;6.65;2.90;;;19.40;44.10;;;;;;5060049;28;20060;-67
2022/01/24 09:56:59;;;;;;;7.57;2.40;;;19.50;44.50;;;;;;5074226;28;20032;-66
2022/01/24 09:59:25;;;;;;;5.82;2.50;;;19.50;44.40;;;;;;5074651;28;20036;-68
2022/01/24 10:01:51;;;;;;;4.07;2.15;;;19.60;44.40;;;;;;5056674;28;20514;-66
2022/01/24 10:04:18;;;;;;;6.43;2.40;;;19.70;44.20;;;;;;5074173;28;20028;-66
2022/01/24 10:06:59;;;;;;;5.13;2.30;;;19.70;44.20;;;;;;5065189;28;20059;-66
2022/01/24 10:09:45;;;;;;;5.13;2.22;;;19.80;44.20;;;;;;5074189;28;20029;-67
2022/01/24 10:17:40;;;;;;;3.72;2.22;;;19.80;44.50;;;;;;5075188;28;20040;-67
2022/01/24 10:20:27;;;;;;;4.63;2.03;;;19.90;44.40;;;;;;5075238;28;20035;-66
2022/01/24 10:23:12;;;;;;;7.53;2.35;;;20.00;44.20;;;;;;5074981;28;20039;-70
2022/01/24 10:26:05;;;;;;;3.05;1.92;;;20.00;44.40;;;;;;5060526;28;20540;-67
2022/01/24 10:28:44;;;;;;;6.47;2.22;;;20.00;44.40;;;;;;5067703;28;20056;-66
2022/01/24 10:31:28;;;;;;;4.55;2.10;;;20.00;44.70;;;;;;5070755;28;20036;-67
2022/01/24 10:34:11;;;;;;;5.45;2.13;;;20.00;44.70;;;;;;5055738;28;20421;-68
2022/01/24 10:36:41;;;;;;;3.28;1.98;;;20.10;44.50;;;;;;5071244;28;20535;-68
2022/01/24 10:39:33;;;;;;;6.05;2.35;;;20.10;44.40;;;;;;5061224;28;20718;-68
2022/01/24 10:45:01;;;;;;;5.15;2.80;;;20.20;44.50;;;;;;5061285;28;20047;-66
2022/01/24 10:47:30;;;;;;;3.60;2.30;;;20.10;43.80;;;;;;5073862;28;20044;-67
2022/01/24 10:49:58;;;;;;;3.75;2.30;;;20.10;43.80;;;;;;5069571;28;20161;-68
2022/01/24 10:52:28;;;;;;;3.58;2.25;;;20.20;43.80;;;;;;5049516;28;20052;-67
2022/01/24 10:55:20;;;;;;;4.15;2.20;;;20.20;43.70;;;;;;5050978;28;20052;-68
2022/01/24 10:57:49;;;;;;;3.22;2.10;;;20.30;43.70;;;;;;5070909;28;20025;-67
2022/01/24 11:00:17;;;;;;;4.40;2.25;;;20.20;43.70;;;;;;5067120;28;20377;-67
2022/01/24 11:02:44;;;;;;;4.93;2.25;;;20.20;43.60;;;;;;5072231;28;20082;-67
2022/01/24 11:05:15;;;;;;;3.08;1.80;;;20.30;44.50;;;;;;5074217;28;20046;-67
2022/01/24 11:07:57;;;;;;;3.63;1.70;;;20.30;43.30;;;;;;5074414;28;20087;-67
2022/01/24 11:10:29;;;;;;;6.07;2.08;;;20.40;43.10;;;;;;5048625;28;20124;-67
2022/01/24 11:12:55;;;;;;;3.33;1.55;;;20.40;43.20;;;;;;5071224;28;20476;-67
2022/01/24 11:15:22;;;;;;;3.55;1.70;;;20.40;43.30;;;;;;5074132;28;20024;-67
2022/01/24 11:17:48;;;;;;;4.60;1.85;;;20.40;43.30;;;;;;5065676;28;20468;-67
2022/01/24 11:20:18;;;;;;;2.25;1.63;;;20.40;43.10;;;;;;5037998;28;20399;-67
2022/01/24 11:22:52;;;;;;;4.55;1.77;;;20.40;43.00;;;;;;5074190;28;20028;-67
2022/01/24 11:25:18;;;;;;;3.45;1.55;;;20.40;42.80;;;;;;5060762;28;20021;-68
2022/01/24 11:27:47;;;;;;;3.88;1.70;;;20.50;42.80;;;;;;5068044;28;20383;-68
2022/01/24 11:30:28;;;;;;;3.75;1.48;;;20.50;42.80;;;;;;5065107;28;20036;-66
2022/01/24 11:32:58;;;;;;;2.67;1.70;;;20.50;42.70;;;;;;5061646;28;20096;-65
2022/01/24 11:35:38;;;;;;;2.30;1.38;;;20.50;42.90;;;;;;5053557;28;20091;-65
2022/01/24 11:38:04;;;;;;;3.10;1.42;;;20.50;42.80;;;;;;5053649;28;20029;-65
2022/01/24 11:40:45;;;;;;;3.38;1.95;;;20.50;42.80;;;;;;5053525;28;20040;-65
2022/01/24 11:43:35;;;;;;;1.93;1.67;;;20.50;42.70;;;;;;5053677;28;20033;-65
2022/01/24 11:46:07;;;;;;;4.07;1.67;;;20.60;42.90;;;;;;5069255;28;20645;-65
2022/01/24 11:48:35;;;;;;;2.42;1.60;;;20.50;42.90;;;;;;5073613;28;20035;-64
2022/01/24 11:51:04;;;;;;;4.13;1.60;;;20.50;42.90;;;;;;5073943;28;20376;-66
2022/01/24 11:53:33;;;;;;;4.65;1.95;;;20.50;42.90;;;;;;5073731;28;20021;-64
2022/01/24 11:56:22;;;;;;;2.58;1.50;;;20.50;42.60;;;;;;5073905;28;20033;-66
2022/01/24 11:58:48;;;;;;;3.03;1.50;;;20.60;42.50;;;;;;5073506;28;20059;-67
2022/01/24 12:01:33;;;;;;;4.95;1.83;;;20.50;42.70;;;;;;5060519;28;20029;-67
2022/01/24 12:03:59;;;;;;;4.88;2.10;;;20.60;43.00;;;;;;5073130;28;20035;-67
2022/01/24 12:06:24;;;;;;;4.70;2.10;;;20.60;43.10;;;;;;5065112;28;20029;-65
2022/01/24 12:09:02;;;;;;;2.95;1.98;;;20.50;45.10;;;;;;5053262;28;20029;-66
2022/01/24 12:11:33;;;;;;;5.20;1.85;;;20.50;46.00;;;;;;5053682;28;20017;-65
2022/01/24 12:14:12;;;;;;;2.35;1.70;;;20.50;45.90;;;;;;5053147;28;20045;-66
2022/01/24 12:16:41;;;;;;;3.45;1.92;;;20.60;45.90;;;;;;5053430;28;20037;-65
2022/01/24 12:19:08;;;;;;;3.75;1.70;;;20.60;45.60;;;;;;5053423;28;20025;-65
2022/01/24 12:21:39;;;;;;;3.20;1.65;;;20.70;45.20;;;;;;5064365;28;20032;-65
2022/01/24 12:24:11;;;;;;;3.20;1.77;;;20.70;45.10;;;;;;5057396;28;20020;-66
2022/01/24 12:26:42;;;;;;;3.53;1.85;;;20.70;45.00;;;;;;5077256;28;20040;-66
2022/01/24 12:29:18;;;;;;;4.13;1.60;;;20.80;45.00;;;;;;5059262;28;20012;-65
2022/01/24 12:31:50;;;;;;;3.28;1.65;;;20.80;44.70;;;;;;5077273;28;20024;-66
2022/01/24 12:34:24;;;;;;;2.05;1.70;;;20.90;44.50;;;;;;5077387;28;20032;-66
2022/01/24 12:37:23;;;;;;;4.25;1.80;;;20.90;44.40;;;;;;5077134;28;20024;-66
2022/01/24 12:39:58;;;;;;;4.70;1.80;;;21.00;44.40;;;;;;5073159;28;20056;-65
2022/01/24 12:42:41;;;;;;;6.30;1.77;;;21.00;44.60;;;;;;5077628;28;20029;-66
2022/01/24 12:48:14;;;;;;;3.50;1.95;;;21.00;44.20;;;;;;5073413;28;20130;-67
2022/01/24 12:50:49;;;;;;;4.47;2.22;;;21.10;43.70;;;;;;5074116;28;20024;-67
2022/01/24 12:53:16;;;;;;;3.63;1.63;;;21.10;43.50;;;;;;5074723;28;20021;-66
2022/01/24 12:55:43;;;;;;;3.85;1.60;;;21.10;43.50;;;;;;5074107;28;20024;-65
2022/01/24 12:58:09;;;;;;;2.60;1.80;;;21.20;43.50;;;;;;5074884;28;20028;-65
2022/01/24 13:00:35;;;;;;;4.65;2.08;;;21.20;43.40;;;;;;5076032;28;20395;-66
2022/01/24 13:03:01;;;;;;;1.83;1.50;;;21.20;43.10;;;;;;5074019;28;20021;-65
2022/01/24 13:05:28;;;;;;;3.40;1.80;;;21.30;42.90;;;;;;5074886;28;20404;-66
2022/01/24 13:07:58;;;;;;;3.80;1.90;;;21.30;42.70;;;;;;5076115;28;20561;-67
2022/01/24 13:10:29;;;;;;;2.65;1.60;;;21.30;42.60;;;;;;5076244;28;20028;-65
2022/01/24 13:12:58;;;;;;;3.37;1.70;;;21.40;42.60;;;;;;5066942;28;20036;-66
2022/01/24 13:20:23;;;;;;;2.40;1.80;;;21.40;42.60;;;;;;5071895;28;20399;-65
2022/01/24 13:23:29;;;;;;;2.50;1.60;;;21.50;42.70;;;;;;5075567;28;20090;-67
2022/01/24 13:25:55;;;;;;;1.58;1.33;;;21.50;41.80;;;;;;5075678;28;20033;-67
2022/01/24 13:28:21;;;;;;;2.88;1.60;;;21.50;41.90;;;;;;5075551;28;20064;-67
2022/01/24 13:30:50;;;;;;;2.13;1.50;;;21.60;41.90;;;;;;5076321;28;20372;-67
2022/01/24 13:33:22;;;;;;;2.40;1.50;;;21.60;41.80;;;;;;5072992;28;20380;-65
2022/01/24 13:35:59;;;;;;;3.13;1.88;;;21.60;41.50;;;;;;5064772;28;20499;-65
2022/01/24 13:38:30;;;;;;;2.63;1.50;;;21.60;41.40;;;;;;5057144;28;20515;-65
2022/01/24 13:41:04;;;;;;;2.63;1.40;;;21.50;41.40;;;;;;5074774;28;20384;-67
2022/01/24 13:43:32;;;;;;;2.05;1.48;;;21.50;41.40;;;;;;5075508;28;20029;-67
2022/01/24 13:45:58;;;;;;;2.33;1.67;;;21.50;41.40;;;;;;5075272;28;20051;-67
2022/01/24 13:48:24;;;;;;;1.80;1.70;;;21.50;41.40;;;;;;5075987;28;20495;-67
2022/01/24 13:50:52;;;;;;;2.33;1.75;;;21.50;41.40;;;;;;5067903;28;20017;-67
2022/01/24 13:53:33;;;;;;;1.73;1.50;;;21.50;41.30;;;;;;5063171;28;20051;-67
2022/01/24 13:55:59;;;;;;;3.65;2.03;;;21.50;41.10;;;;;;5070595;28;20040;-67
2022/01/24 13:58:26;;;;;;;2.53;1.88;;;21.40;41.20;;;;;;5075650;28;20036;-66
2022/01/24 14:00:59;;;;;;;2.47;1.83;;;21.40;41.00;;;;;;5075253;28;20039;-67
2022/01/24 14:03:25;;;;;;;1.83;1.63;;;21.40;41.10;;;;;;5056047;28;20045;-67
2022/01/24 14:06:17;;;;;;;2.28;1.90;;;21.40;41.20;;;;;;5075493;28;20036;-67
2022/01/24 14:08:43;;;;;;;3.10;1.77;;;21.40;41.30;;;;;;5057806;28;20026;-64
2022/01/24 14:11:15;;;;;;;2.05;1.58;;;21.30;42.50;;;;;;5075197;28;20024;-64
2022/01/24 14:13:52;;;;;;;2.38;1.70;;;21.30;41.60;;;;;;5075403;28;20021;-65
2022/01/24 14:16:58;;;;;;;2.05;1.85;;;21.30;41.70;;;;;;5075450;28;20020;-65
2022/01/24 14:19:32;;;;;;;4.10;2.28;;;21.30;41.60;;;;;;5074384;28;20028;-65
2022/01/24 14:22:10;;;;;;;3.08;1.90;;;21.30;41.90;;;;;;5055524;28;20024;-65
2022/01/24 14:24:48;;;;;;;3.22;1.92;;;21.20;41.90;;;;;;5055505;28;20050;-64
2022/01/24 14:27:35;;;;;;;2.80;1.92;;;21.20;41.90;;;;;;5060305;28;20036;-64
2022/01/24 14:30:11;;;;;;;3.08;1.85;;;21.20;42.10;;;;;;5074873;28;20116;-63
2022/01/24 14:32:39;;;;;;;3.60;2.10;;;21.20;42.30;;;;;;5074959;28;20533;-64
2022/01/24 14:35:06;;;;;;;5.70;2.47;;;21.10;42.40;;;;;;5074855;28;20480;-66
2022/01/24 14:37:49;;;;;;;5.80;2.20;;;21.10;42.60;;;;;;5055158;28;20029;-66
2022/01/24 14:40:42;;;;;;;8.82;2.95;;;21.20;42.60;;;;;;5068537;28;20025;-65
2022/01/24 14:45:51;;;;;;;5.55;3.28;;;21.10;43.70;;;;;;5054964;28;20040;-65
2022/01/24 14:48:17;;;;;;;6.00;3.25;;;21.10;42.50;;;;;;5035852;28;20029;-65
2022/01/24 14:50:43;;;;;;;6.63;2.88;;;21.10;42.20;;;;;;5054565;28;20021;-65
2022/01/24 14:53:11;;;;;;;5.80;3.35;;;21.00;42.20;;;;;;5067784;28;20078;-63
2022/01/24 14:55:37;;;;;;;5.05;3.45;;;21.00;42.00;;;;;;5072540;28;20044;-65